TFFR Airport Information

Runway Information
Runway 12 Length 11499 ft width 148 ft Elevation 5 ft Threshold 1312 ft Heading 101
Runway 30 Length 11499 ft Width 148 ft Elevation 32 ft Threshold 820 ft Heading 281
Airport Frequencies
Type APP Name RAIZET APP Frequency 121.3 MHZ
Type ATIS Name ATIS Frequency 127.6 MHZ
Type GND Name GND Frequency 121.85 MHZ
Type TWR Name RAIZET TWR Frequency 118.4 MHZ
Airport Navaids
Type VOR-DME Name Pointe A Pitre Frequency 112900 KHZ
Type NDB Name Pointe A Pitre Frequency 385 KHZ
Airport Weather Information & NOTAM
ADDS - METARS form results

(1027 UTC 30 January 2023)
Data provider http://aviationweather.gov/metar/data/
 
METAR text: TFFR 301000Z AUTO 00000KT 9999 FEW031 20/19 Q1014 TEMPO 4000 SHRA SCT020TCU
Conditions at: TFFR (LE RAIZET , GP) observed 1000 UTC 30 January 2023
Temperature: 20.0°C (68°F)
Dewpoint: 19.0°C (66°F) [RH = 94%]
Pressure (altimeter): 29.94 inches Hg (1014.0 mb)
Winds: calm
Visibility: 6 or more miles (10+ km)
Ceiling: at least 12,000 feet AGL
Clouds: few clouds at 3100 feet AGL
Weather: no significant weather observed at this time

METAR text: TFFR 300930Z AUTO 00000KT 9999 FEW035 20/19 Q1014 TEMPO 4000 SHRA SCT020TCU
Conditions at: TFFR (LE RAIZET , GP) observed 0930 UTC 30 January 2023
Temperature: 20.0°C (68°F)
Dewpoint: 19.0°C (66°F) [RH = 94%]
Pressure (altimeter): 29.94 inches Hg (1014.0 mb)
Winds: calm
Visibility: 6 or more miles (10+ km)
Ceiling: at least 12,000 feet AGL
Clouds: few clouds at 3500 feet AGL
Weather: no significant weather observed at this time

Forecast for: TFFR (LE RAIZET , GP)
Text: TAF TFFR 300500Z 3006/3106 VRB03KT 9999 SCT030
Forecast period: 0600 to 1300 UTC 30 January 2023
Forecast type: FROM: standard forecast or significant change
Winds: variable direction winds at 3 MPH (3 knots; 1.5 m/s)
Visibility: 6 or more miles (10+ km)
Ceiling: at least 12,000 feet AGL
Clouds: scattered clouds at 3000 feet AGL
Weather: no significant weather forecast for this period
Text: PROB30
Forecast period: 1000 UTC 30 January 2023 to 0600 UTC 31 January 2023
Forecast type: TEMPORARY: The following changes expected for less than half the time period
Visibility: 2.49 miles (4.01 km)
Ceiling: at least 12,000 feet AGL
Clouds: scattered clouds at 2000 feet AGL
Weather: SHRA  (rain showers)
Text: TEMPO 3010/3106 4000 SHRA SCT020TCU
Forecast period: 1300 UTC 30 January 2023 to 0600 UTC 31 January 2023
Forecast type: BECOMING: Conditions expected to become as follows by 1600 UTC 30 January 2023
Winds: from the E (80 degrees) at 12 MPH (10 knots; 5.1 m/s)
Visibility: 6 or more miles (10+ km)
Ceiling: at least 12,000 feet AGL
Clouds: scattered clouds at 3000 feet AGL
Weather: no significant weather forecast for this period